Terminal Aerodrome Forecast
Issued by NWS Portland, OR

Home | Current Version | Previous Version | Text Only | Print | Product List | Glossary On
Versions: 1 2 3 4 5 6 7 8 9 10 11 12 13 14 15
000
FTUS46 KPQR 251720
TAFHIO
TAF
KHIO 251720Z 2518/2618 29004KT P6SM FEW025 OVC035
     FM252000 31005KT P6SM SCT040 BKN050
     FM260100 31010KT P6SM BKN050
     FM260800 30005KT P6SM BKN040
     FM261400 00000KT P6SM SCT025 OVC035=

USA.gov is the U.S. government's official web portal to all federal, state and local government web resources and services.